Hillsview, South Dakota
Current Conditions -  °F | °C
As of 4:52 PM on Saturday 25 Oct 2014 (Local Time) from KMBG Reporting Station
Clear Clear  
Wind Chill: 67°   Ceiling: Unl
Heat Index: 67°   Visibility: 10mi
Dew Point: 29°   Wind: 6mph
Humidity: 24%   Direction: 160°SSE
Pressure: 30.04"   Gusts: NA
Location:  45.7737°N, 99.5895°W
Report Text: KMBG 252152Z AUTO 16005KT 10SM CLR 19/M02 A3004 RMK AO2 SLP171 T01941017
Loading
Personal Weather Stations






























Interactive Weather Map
Tropical Storm Tracking
New forecast layout! Learn more

10-Day Weather Forecast

Advertisements
Track Severe Weather on mobile